Terminal Aerodrome Forecast
Issued by NWS Cleveland, OH

Home | Current Version | Previous Version | Graphics & Text | Print | Product List | Glossary Off
Versions: 1 2 3 4 5 6 7 8 9 10 11 12 13 14

000
FTUS41 KCLE 261123
TAFCAK
TAF
KCAK 261123Z 2612/2712 28005KT 5SM BR SCT018 BKN050
      TEMPO 2612/2615 6SM BR BKN018
     FM261500 31008KT P6SM OVC035
     FM270000 32004KT P6SM BKN040
     FM270900 30003KT 5SM BR BKN030=

USA.gov is the U.S. government's official web portal to all federal, state and local government web resources and services.